createdAt,value
2018-07-12T00:00:37.357Z,95472.00
2018-07-12T00:03:04.897Z,95475.00
2018-07-12T00:05:32.603Z,95469.00
2018-07-12T00:08:00.471Z,95473.00
2018-07-12T00:10:28.456Z,95472.00
2018-07-12T00:12:56.547Z,95467.00
2018-07-12T00:15:24.110Z,95467.00
2018-07-12T00:17:51.686Z,95465.00
2018-07-12T00:20:20.902Z,95470.00
2018-07-12T00:22:49.248Z,95470.00
2018-07-12T00:25:16.846Z,95467.00
2018-07-12T00:27:44.517Z,95465.00
2018-07-12T00:30:13.231Z,95468.00
2018-07-12T00:32:40.827Z,95475.00
2018-07-12T00:35:09.093Z,95471.00
2018-07-12T00:37:37.744Z,95467.00
2018-07-12T00:40:05.512Z,95470.00
2018-07-12T00:42:35.785Z,95465.00
2018-07-12T00:45:03.326Z,95466.00
2018-07-12T00:47:30.907Z,95471.00
2018-07-12T00:49:58.445Z,95454.00
2018-07-12T00:52:26.101Z,95454.00
2018-07-12T00:54:53.624Z,95463.00
2018-07-12T00:57:21.162Z,95468.00
2018-07-12T00:59:49.434Z,95473.00
2018-07-12T01:02:17.019Z,95475.00
2018-07-12T01:04:44.546Z,95472.00
2018-07-12T01:07:12.439Z,95465.00
2018-07-12T01:09:40.237Z,95460.00
2018-07-12T01:12:08.154Z,95463.00
2018-07-12T01:14:35.695Z,95468.00
2018-07-12T01:17:04.000Z,95458.00
2018-07-12T01:19:31.837Z,95461.00
2018-07-12T01:21:59.399Z,95465.00
2018-07-12T01:24:26.913Z,95447.00
2018-07-12T01:26:55.905Z,95452.00
2018-07-12T01:29:23.654Z,95448.00
2018-07-12T01:31:51.194Z,95454.00
2018-07-12T01:34:19.085Z,95448.00
2018-07-12T01:36:46.634Z,95453.00
2018-07-12T01:39:14.150Z,95459.00
2018-07-12T01:41:42.399Z,95445.00
2018-07-12T01:44:10.584Z,95446.00
2018-07-12T01:46:38.404Z,95434.00
2018-07-12T01:49:05.953Z,95432.00
2018-07-12T01:51:34.802Z,95447.00
2018-07-12T01:54:02.583Z,95443.00
2018-07-12T01:56:30.122Z,95435.00
2018-07-12T01:58:58.155Z,95433.00
2018-07-12T02:01:25.691Z,95435.00
2018-07-12T02:03:54.202Z,95434.00
2018-07-12T02:06:21.840Z,95429.00
2018-07-12T02:08:49.538Z,95430.00
2018-07-12T02:11:17.997Z,95436.00
2018-07-12T02:13:46.738Z,95445.00
2018-07-12T02:16:14.248Z,95437.00
2018-07-12T02:18:42.081Z,95428.00
2018-07-12T02:21:10.489Z,95431.00
2018-07-12T02:23:39.068Z,95430.00
2018-07-12T02:26:06.614Z,95423.00
2018-07-12T02:28:34.170Z,95425.00
2018-07-12T02:31:01.707Z,95437.00
2018-07-12T02:33:29.248Z,95429.00
2018-07-12T02:35:56.766Z,95432.00
2018-07-12T02:38:25.016Z,95423.00
2018-07-12T02:40:52.599Z,95417.00
2018-07-12T02:43:20.143Z,95423.00
2018-07-12T02:45:47.714Z,95421.00
2018-07-12T02:48:16.255Z,95414.00
2018-07-12T02:50:43.944Z,95416.00
2018-07-12T02:53:11.598Z,95413.00
2018-07-12T02:55:39.252Z,95418.00
2018-07-12T02:58:07.014Z,95400.00
2018-07-12T03:00:34.562Z,95399.00
2018-07-12T03:03:02.122Z,95399.00
2018-07-12T03:05:30.554Z,95401.00
2018-07-12T03:07:58.125Z,95387.00
2018-07-12T03:10:25.662Z,95390.00
2018-07-12T03:12:53.210Z,95396.00
2018-07-12T03:15:22.611Z,95391.00
2018-07-12T03:17:50.186Z,95391.00
2018-07-12T03:20:18.007Z,95393.00
2018-07-12T03:22:45.845Z,95398.00
2018-07-12T03:25:13.382Z,95397.00
2018-07-12T03:27:40.922Z,95394.00
2018-07-12T03:30:08.504Z,95390.00
2018-07-12T03:32:36.026Z,95403.00
2018-07-12T03:35:03.571Z,95401.00
2018-07-12T03:37:31.142Z,95403.00
2018-07-12T03:39:58.701Z,95394.00
2018-07-12T03:42:26.684Z,95396.00
2018-07-12T03:44:54.391Z,95400.00
2018-07-12T03:47:21.914Z,95401.00
2018-07-12T03:49:49.465Z,95410.00
2018-07-12T03:52:17.472Z,95406.00
2018-07-12T03:54:45.006Z,95418.00
2018-07-12T03:57:12.551Z,95410.00
2018-07-12T03:59:40.102Z,95409.00
2018-07-12T04:02:07.657Z,95419.00
2018-07-12T04:04:35.195Z,95414.00
2018-07-12T04:07:02.713Z,95418.00
2018-07-12T04:09:30.266Z,95421.00
2018-07-12T04:11:57.802Z,95426.00
2018-07-12T04:14:25.369Z,95422.00
2018-07-12T04:16:52.894Z,95425.00
2018-07-12T04:19:20.458Z,95422.00
2018-07-12T04:21:49.119Z,95420.00
2018-07-12T04:24:16.678Z,95414.00
2018-07-12T04:26:44.197Z,95418.00
2018-07-12T04:29:11.745Z,95413.00
2018-07-12T04:31:40.078Z,95413.00
2018-07-12T04:34:07.605Z,95425.00
2018-07-12T04:36:38.186Z,95416.00
2018-07-12T04:39:06.202Z,95425.00
2018-07-12T04:41:34.030Z,95425.00
2018-07-12T04:44:01.636Z,95410.00
2018-07-12T04:46:29.220Z,95415.00
2018-07-12T04:48:56.757Z,95419.00
2018-07-12T04:51:24.295Z,95411.00
2018-07-12T04:53:51.870Z,95417.00
2018-07-12T04:56:19.399Z,95417.00
2018-07-12T04:58:46.945Z,95426.00
2018-07-12T05:01:14.513Z,95424.00
2018-07-12T05:03:42.057Z,95429.00
2018-07-12T05:06:10.355Z,95428.00
2018-07-12T05:08:37.901Z,95433.00
2018-07-12T05:11:05.486Z,95430.00
2018-07-12T05:13:33.046Z,95418.00
2018-07-12T05:16:00.594Z,95421.00
2018-07-12T05:18:28.122Z,95422.00
2018-07-12T05:20:55.659Z,95432.00
2018-07-12T05:23:23.194Z,95427.00
2018-07-12T05:25:50.727Z,95434.00
2018-07-12T05:28:18.274Z,95437.00
2018-07-12T05:30:45.894Z,95434.00
2018-07-12T05:33:13.394Z,95443.00
2018-07-12T05:35:42.414Z,95437.00
2018-07-12T05:38:12.190Z,95450.00
2018-07-12T05:40:41.313Z,95440.00
2018-07-12T05:43:10.335Z,95459.00
2018-07-12T05:45:39.344Z,95436.00
2018-07-12T05:48:08.393Z,95450.00
2018-07-12T05:50:37.602Z,95446.00
2018-07-12T05:53:06.711Z,95444.00
2018-07-12T05:55:35.750Z,95447.00
2018-07-12T05:58:04.902Z,95448.00
2018-07-12T06:00:33.939Z,95449.00
2018-07-12T06:03:02.951Z,95446.00
2018-07-12T06:05:31.941Z,95446.00
2018-07-12T06:08:00.978Z,95452.00
2018-07-12T06:10:29.988Z,95450.00
2018-07-12T06:12:58.979Z,95451.00
2018-07-12T06:15:28.019Z,95458.00
2018-07-12T06:17:57.037Z,95462.00
2018-07-12T06:20:26.072Z,95464.00
2018-07-12T06:22:55.101Z,95464.00
2018-07-12T06:25:24.182Z,95463.00
2018-07-12T06:27:53.186Z,95465.00
2018-07-12T06:30:22.233Z,95471.00
2018-07-12T06:32:51.263Z,95470.00
2018-07-12T06:35:20.274Z,95466.00
2018-07-12T06:37:49.321Z,95453.00
2018-07-12T06:40:18.293Z,95458.00
2018-07-12T06:42:47.412Z,95451.00
2018-07-12T06:45:16.438Z,95468.00
2018-07-12T06:47:45.565Z,95462.00
2018-07-12T06:50:14.573Z,95462.00
2018-07-12T06:52:43.605Z,95459.00
2018-07-12T06:55:12.614Z,95467.00
2018-07-12T06:57:41.628Z,95463.00
2018-07-12T07:00:10.638Z,95465.00
2018-07-12T07:02:39.643Z,95465.00
2018-07-12T07:05:08.854Z,95467.00
2018-07-12T07:07:37.885Z,95462.00
2018-07-12T07:10:06.899Z,95469.00
2018-07-12T07:12:35.914Z,95463.00
2018-07-12T07:15:05.007Z,95462.00
2018-07-12T07:17:34.024Z,95465.00
2018-07-12T07:20:03.076Z,95464.00
2018-07-12T07:22:32.049Z,95464.00
2018-07-12T07:25:01.058Z,95464.00
2018-07-12T07:27:30.075Z,95468.00
2018-07-12T07:29:59.069Z,95454.00
2018-07-12T07:32:28.128Z,95466.00
2018-07-12T07:34:57.177Z,95466.00
2018-07-12T07:37:26.179Z,95471.00
2018-07-12T07:39:55.262Z,95471.00
2018-07-12T07:42:24.317Z,95463.00
2018-07-12T07:44:53.327Z,95463.00
2018-07-12T07:47:22.326Z,95464.00
2018-07-12T07:49:51.318Z,95463.00
2018-07-12T07:52:20.326Z,95465.00
2018-07-12T07:54:49.324Z,95479.00
2018-07-12T07:57:18.326Z,95472.00
2018-07-12T07:59:47.357Z,95464.00
2018-07-12T08:02:16.370Z,95472.00
2018-07-12T08:04:45.398Z,95465.00
2018-07-12T08:07:14.580Z,95468.00
2018-07-12T08:09:43.594Z,95462.00
2018-07-12T08:12:12.795Z,95466.00
2018-07-12T08:14:41.872Z,95467.00
2018-07-12T08:17:10.923Z,95465.00
2018-07-12T08:19:40.193Z,95476.00
2018-07-12T08:22:10.544Z,95467.00
2018-07-12T08:24:40.972Z,95466.00
2018-07-12T08:27:10.779Z,95474.00
2018-07-12T08:29:40.800Z,95470.00
2018-07-12T08:32:09.859Z,95473.00
2018-07-12T08:34:39.230Z,95469.00
2018-07-12T08:37:09.537Z,95468.00
2018-07-12T08:39:39.634Z,95480.00
2018-07-12T08:42:08.634Z,95470.00
2018-07-12T08:44:37.646Z,95469.00
2018-07-12T08:47:08.190Z,95469.00
2018-07-12T08:49:39.026Z,95476.00
2018-07-12T08:52:08.018Z,95467.00
2018-07-12T08:54:37.023Z,95469.00
2018-07-12T08:57:06.414Z,95463.00
2018-07-12T08:59:37.428Z,95467.00
2018-07-12T09:02:06.434Z,95472.00
2018-07-12T09:04:35.431Z,95464.00
2018-07-12T09:07:04.545Z,95469.00
2018-07-12T09:09:33.538Z,95474.00
2018-07-12T09:12:02.521Z,95468.00
2018-07-12T09:14:31.623Z,95465.00
2018-07-12T09:17:01.038Z,95463.00
2018-07-12T09:19:31.786Z,95471.00
2018-07-12T09:22:00.930Z,95470.00
2018-07-12T09:24:29.923Z,95471.00
2018-07-12T09:26:59.174Z,95473.00
2018-07-12T09:29:28.664Z,95472.00
2018-07-12T09:31:57.704Z,95470.00
2018-07-12T09:34:26.736Z,95463.00
2018-07-12T09:36:55.788Z,95473.00
2018-07-12T09:39:25.136Z,95476.00
2018-07-12T09:41:54.153Z,95482.00
2018-07-12T09:44:23.477Z,95463.00
2018-07-12T09:46:52.487Z,95465.00
2018-07-12T09:49:21.671Z,95471.00
2018-07-12T09:51:51.909Z,95473.00
2018-07-12T09:54:20.922Z,95470.00
2018-07-12T09:57:07.846Z,95472.00
2018-07-12T09:59:36.969Z,95476.00
2018-07-12T10:02:11.330Z,95473.00
2018-07-12T10:04:40.346Z,95478.00
2018-07-12T10:07:14.602Z,95472.00
2018-07-12T10:09:48.791Z,95477.00
2018-07-12T10:12:22.970Z,95475.00
2018-07-12T10:14:56.177Z,95482.00
2018-07-12T10:17:30.594Z,95479.00
2018-07-12T10:20:00.025Z,95488.00
2018-07-12T10:22:28.990Z,95485.00
2018-07-12T10:24:58.006Z,95486.00
2018-07-12T10:27:27.382Z,95484.00
2018-07-12T10:29:56.571Z,95485.00
2018-07-12T10:32:25.592Z,95482.00
2018-07-12T10:34:54.658Z,95498.00
2018-07-12T10:37:23.663Z,95492.00
2018-07-12T10:39:52.666Z,95489.00
2018-07-12T10:42:21.690Z,95494.00
2018-07-12T10:44:50.836Z,95495.00
2018-07-12T10:47:19.969Z,95501.00
2018-07-12T10:49:48.974Z,95490.00
2018-07-12T10:52:18.392Z,95478.00
2018-07-12T10:54:47.637Z,95484.00
2018-07-12T10:57:16.671Z,95488.00
2018-07-12T10:59:45.702Z,95493.00
2018-07-12T11:02:14.770Z,95490.00
2018-07-12T11:04:44.047Z,95485.00
2018-07-12T11:07:13.182Z,95489.00
2018-07-12T11:09:42.209Z,95492.00
2018-07-12T11:12:11.232Z,95489.00
2018-07-12T11:14:40.351Z,95494.00
2018-07-12T11:17:09.416Z,95504.00
2018-07-12T11:19:38.524Z,95495.00
2018-07-12T11:22:07.638Z,95497.00
2018-07-12T11:24:36.635Z,95500.00
2018-07-12T11:27:05.659Z,95494.00
2018-07-12T11:29:56.771Z,95492.00
2018-07-12T11:32:25.790Z,95487.00
2018-07-12T11:34:54.875Z,95491.00
2018-07-12T11:37:25.674Z,95497.00
2018-07-12T11:39:55.365Z,95498.00
2018-07-12T11:42:24.443Z,95489.00
2018-07-12T11:44:53.457Z,95483.00
2018-07-12T11:47:22.460Z,95469.00
2018-07-12T11:49:51.530Z,95477.00
2018-07-12T11:52:20.695Z,95480.00
2018-07-12T11:54:50.826Z,95482.00
2018-07-12T11:57:19.846Z,95474.00
2018-07-12T11:59:48.890Z,95475.00
2018-07-12T12:02:17.923Z,95478.00
2018-07-12T12:04:46.935Z,95471.00
2018-07-12T12:07:16.024Z,95470.00
2018-07-12T12:09:45.047Z,95468.00
2018-07-12T12:12:17.172Z,95471.00
2018-07-12T12:14:46.370Z,95479.00
2018-07-12T12:17:15.638Z,95469.00
2018-07-12T12:19:44.666Z,95477.00
2018-07-12T12:22:13.703Z,95477.00
2018-07-12T12:24:42.712Z,95477.00
2018-07-12T12:27:12.422Z,95488.00
2018-07-12T12:29:41.441Z,95485.00
2018-07-12T12:32:10.466Z,95485.00
2018-07-12T12:34:39.542Z,95474.00
2018-07-12T12:37:08.602Z,95481.00
2018-07-12T12:39:37.638Z,95488.00
2018-07-12T12:42:07.018Z,95499.00
2018-07-12T12:44:36.102Z,95500.00
2018-07-12T12:47:05.133Z,95487.00
2018-07-12T12:49:34.133Z,95486.00
2018-07-12T12:52:03.185Z,95484.00
2018-07-12T12:54:32.203Z,95494.00
2018-07-12T12:57:01.198Z,95493.00
2018-07-12T12:59:31.109Z,95494.00
2018-07-12T13:02:00.122Z,95484.00
2018-07-12T13:04:29.404Z,95481.00
2018-07-12T13:06:58.544Z,95465.00
2018-07-12T13:09:27.630Z,95478.00
2018-07-12T13:11:56.767Z,95485.00
2018-07-12T13:14:25.784Z,95485.00
2018-07-12T13:16:54.754Z,95485.00
2018-07-12T13:19:23.798Z,95480.00
2018-07-12T13:21:52.882Z,95482.00
2018-07-12T13:24:21.882Z,95485.00
2018-07-12T13:26:51.237Z,95492.00
2018-07-12T13:29:21.266Z,95483.00
2018-07-12T13:31:50.816Z,95485.00
2018-07-12T13:34:20.082Z,95489.00
2018-07-12T13:36:49.477Z,95492.00
2018-07-12T13:39:18.614Z,95496.00
2018-07-12T13:41:47.645Z,95503.00
2018-07-12T13:44:21.581Z,95501.00
2018-07-12T13:46:51.754Z,95495.00
2018-07-12T13:49:20.791Z,95495.00
2018-07-12T13:51:50.870Z,95489.00
2018-07-12T13:54:20.474Z,95490.00
2018-07-12T13:56:50.155Z,95498.00
2018-07-12T13:59:19.267Z,95499.00
2018-07-12T14:01:48.265Z,95502.00
2018-07-12T14:04:18.190Z,95492.00
2018-07-12T14:06:47.200Z,95484.00
2018-07-12T14:09:16.518Z,95488.00
2018-07-12T14:11:45.739Z,95484.00
2018-07-12T14:14:16.399Z,95484.00
2018-07-12T14:16:45.598Z,95492.00
2018-07-12T14:19:14.724Z,95481.00
2018-07-12T14:21:43.845Z,95489.00
2018-07-12T14:24:12.881Z,95485.00
2018-07-12T14:26:42.862Z,95484.00
2018-07-12T14:29:11.889Z,95479.00
2018-07-12T14:31:40.995Z,95473.00
2018-07-12T14:34:10.037Z,95475.00
2018-07-12T14:36:39.514Z,95477.00
2018-07-12T14:39:09.691Z,95472.00
2018-07-12T14:41:38.771Z,95469.00
2018-07-12T14:44:07.805Z,95464.00
2018-07-12T14:46:36.851Z,95478.00
2018-07-12T14:49:05.943Z,95476.00
2018-07-12T14:51:35.035Z,95474.00
2018-07-12T14:54:04.133Z,95481.00
2018-07-12T14:56:33.189Z,95483.00
2018-07-12T14:59:02.302Z,95472.00
2018-07-12T15:01:31.649Z,95471.00
2018-07-12T15:04:00.701Z,95469.00
2018-07-12T15:06:29.749Z,95469.00
2018-07-12T15:08:59.039Z,95466.00
2018-07-12T15:11:28.034Z,95466.00
2018-07-12T15:13:57.881Z,95482.00
2018-07-12T15:16:27.046Z,95471.00
2018-07-12T15:18:56.170Z,95464.00
2018-07-12T15:21:25.423Z,95474.00
2018-07-12T15:23:54.443Z,95468.00
2018-07-12T15:26:24.591Z,95459.00
2018-07-12T15:28:53.526Z,95470.00
2018-07-12T15:31:22.758Z,95465.00
2018-07-12T15:33:52.074Z,95469.00
2018-07-12T15:36:21.421Z,95466.00
2018-07-12T15:38:51.894Z,95464.00
2018-07-12T15:41:21.246Z,95463.00
2018-07-12T15:43:51.275Z,95462.00
2018-07-12T15:46:27.005Z,95465.00
2018-07-12T15:48:56.655Z,95465.00
2018-07-12T15:51:25.924Z,95463.00
2018-07-12T15:53:56.980Z,95464.00
2018-07-12T15:56:28.856Z,95464.00
2018-07-12T15:58:57.940Z,95452.00
2018-07-12T16:01:27.161Z,95462.00
2018-07-12T16:03:56.652Z,95465.00
2018-07-12T16:06:26.345Z,95464.00
2018-07-12T16:08:55.529Z,95463.00
2018-07-12T16:11:26.362Z,95465.00
2018-07-12T16:13:55.504Z,95464.00
2018-07-12T16:16:24.790Z,95465.00
2018-07-12T16:18:59.633Z,95465.00
2018-07-12T16:21:29.239Z,95469.00
2018-07-12T16:24:00.407Z,95474.00
2018-07-12T16:26:29.588Z,95472.00
2018-07-12T16:28:58.977Z,95469.00
2018-07-12T16:31:28.042Z,95470.00
2018-07-12T16:34:00.540Z,95481.00
2018-07-12T16:36:29.965Z,95470.00
2018-07-12T16:39:00.420Z,95468.00
2018-07-12T16:41:29.502Z,95471.00
2018-07-12T16:43:58.522Z,95470.00
2018-07-12T16:46:27.785Z,95471.00
2018-07-12T16:48:56.828Z,95473.00
2018-07-12T16:51:25.879Z,95470.00
2018-07-12T16:53:54.913Z,95483.00
2018-07-12T16:56:24.811Z,95474.00
2018-07-12T16:58:53.802Z,95477.00
2018-07-12T17:01:22.892Z,95482.00
2018-07-12T17:03:52.893Z,95479.00
2018-07-12T17:06:22.483Z,95482.00
2018-07-12T17:08:51.625Z,95474.00
2018-07-12T17:11:20.872Z,95488.00
2018-07-12T17:13:51.092Z,95488.00
2018-07-12T17:16:20.103Z,95482.00
2018-07-12T17:18:50.430Z,95490.00
2018-07-12T17:21:19.767Z,95489.00
2018-07-12T17:23:49.011Z,95491.00
2018-07-12T17:26:17.969Z,95492.00
2018-07-12T17:28:46.990Z,95504.00
2018-07-12T17:31:16.196Z,95494.00
2018-07-12T17:33:45.608Z,95504.00
2018-07-12T17:36:14.850Z,95504.00
2018-07-12T17:38:43.884Z,95501.00
2018-07-12T17:41:13.011Z,95501.00
2018-07-12T17:43:42.458Z,95509.00
2018-07-12T17:46:11.535Z,95511.00
2018-07-12T17:48:40.548Z,95504.00
2018-07-12T17:51:09.566Z,95503.00
2018-07-12T17:53:39.698Z,95515.00
2018-07-12T17:56:08.917Z,95513.00
2018-07-12T17:58:37.970Z,95517.00
2018-07-12T18:01:07.137Z,95516.00
2018-07-12T18:03:36.357Z,95514.00
2018-07-12T18:06:05.830Z,95520.00
2018-07-12T18:08:34.965Z,95522.00
2018-07-12T18:11:03.950Z,95521.00
2018-07-12T18:13:33.382Z,95519.00
2018-07-12T18:16:03.701Z,95520.00
2018-07-12T18:18:32.798Z,95525.00
2018-07-12T18:21:02.016Z,95525.00
2018-07-12T18:23:31.098Z,95523.00
2018-07-12T18:26:00.478Z,95520.00
2018-07-12T18:28:29.662Z,95527.00
2018-07-12T18:30:58.666Z,95534.00
2018-07-12T18:33:27.753Z,95525.00
2018-07-12T18:35:56.877Z,95522.00
2018-07-12T18:38:26.225Z,95527.00
2018-07-12T18:40:55.238Z,95528.00
2018-07-12T18:43:24.243Z,95530.00
2018-07-12T18:45:54.185Z,95528.00
2018-07-12T18:48:23.316Z,95544.00
2018-07-12T18:50:53.194Z,95538.00
2018-07-12T18:53:22.203Z,95542.00
2018-07-12T18:55:51.526Z,95543.00
2018-07-12T18:58:20.536Z,95550.00
2018-07-12T19:00:50.645Z,95551.00
2018-07-12T19:03:20.490Z,95552.00
2018-07-12T19:05:50.622Z,95555.00
2018-07-12T19:08:19.681Z,95555.00
2018-07-12T19:10:48.729Z,95552.00
2018-07-12T19:13:17.925Z,95563.00
2018-07-12T19:15:47.038Z,95559.00
2018-07-12T19:18:16.221Z,95555.00
2018-07-12T19:20:46.361Z,95558.00
2018-07-12T19:23:15.381Z,95568.00
2018-07-12T19:25:44.386Z,95569.00
2018-07-12T19:28:13.522Z,95571.00
2018-07-12T19:30:42.511Z,95576.00
2018-07-12T19:33:11.687Z,95580.00
2018-07-12T19:35:40.678Z,95575.00
2018-07-12T19:38:09.674Z,95579.00
2018-07-12T19:40:38.749Z,95589.00
2018-07-12T19:43:07.753Z,95587.00
2018-07-12T19:45:36.790Z,95592.00
2018-07-12T19:48:05.822Z,95596.00
2018-07-12T19:50:34.814Z,95594.00
2018-07-12T19:53:03.833Z,95600.00
2018-07-12T19:55:33.122Z,95592.00
2018-07-12T19:58:02.258Z,95595.00
2018-07-12T20:00:31.310Z,95595.00
2018-07-12T20:03:00.394Z,95595.00
2018-07-12T20:05:29.530Z,95601.00
2018-07-12T20:07:58.546Z,95601.00
2018-07-12T20:10:27.568Z,95601.00
2018-07-12T20:12:56.714Z,95597.00
2018-07-12T20:15:25.810Z,95600.00
2018-07-12T20:17:54.833Z,95604.00
2018-07-12T20:20:23.866Z,95606.00
2018-07-12T20:22:53.018Z,95606.00
2018-07-12T20:25:22.049Z,95601.00
2018-07-12T20:27:51.250Z,95600.00
2018-07-12T20:30:20.321Z,95603.00
2018-07-12T20:32:50.802Z,95604.00
2018-07-12T20:35:19.837Z,95606.00
2018-07-12T20:37:48.863Z,95607.00
2018-07-12T20:40:17.874Z,95613.00
2018-07-12T20:42:46.865Z,95611.00
2018-07-12T20:45:15.950Z,95621.00
2018-07-12T20:47:45.094Z,95617.00
2018-07-12T20:50:14.151Z,95622.00
2018-07-12T20:52:43.297Z,95622.00
2018-07-12T20:55:12.309Z,95618.00
2018-07-12T20:57:41.390Z,95622.00
2018-07-12T21:00:10.413Z,95622.00
2018-07-12T21:02:39.428Z,95616.00
2018-07-12T21:05:08.527Z,95626.00
2018-07-12T21:07:37.559Z,95624.00
2018-07-12T21:10:06.781Z,95620.00
2018-07-12T21:12:35.810Z,95629.00
2018-07-12T21:15:04.855Z,95625.00
2018-07-12T21:17:33.862Z,95621.00
2018-07-12T21:20:02.873Z,95621.00
2018-07-12T21:22:31.871Z,95623.00
2018-07-12T21:25:00.874Z,95639.00
2018-07-12T21:27:29.870Z,95627.00
2018-07-12T21:29:58.870Z,95631.00
2018-07-12T21:32:27.892Z,95635.00
2018-07-12T21:34:56.912Z,95639.00
2018-07-12T21:37:25.934Z,95637.00
2018-07-12T21:39:54.942Z,95635.00
2018-07-12T21:42:23.947Z,95638.00
2018-07-12T21:44:52.938Z,95635.00
2018-07-12T21:47:21.945Z,95642.00
2018-07-12T21:49:51.034Z,95640.00
2018-07-12T21:52:20.211Z,95642.00
2018-07-12T21:54:50.101Z,95647.00
2018-07-12T21:57:19.090Z,95651.00
2018-07-12T21:59:48.106Z,95650.00
2018-07-12T22:02:17.281Z,95654.00
2018-07-12T22:04:46.309Z,95653.00
2018-07-12T22:08:09.634Z,95657.00
2018-07-12T22:10:38.678Z,95655.00
2018-07-12T22:13:07.653Z,95645.00
2018-07-12T22:15:36.769Z,95652.00
2018-07-12T22:18:05.811Z,95653.00
2018-07-12T22:20:34.858Z,95650.00
2018-07-12T22:23:03.917Z,95657.00
2018-07-12T22:25:33.229Z,95657.00
2018-07-12T22:28:02.226Z,95659.00
2018-07-12T22:30:31.564Z,95658.00
2018-07-12T22:33:01.584Z,95662.00
2018-07-12T22:35:30.627Z,95658.00
2018-07-12T22:38:01.653Z,95658.00
2018-07-12T22:40:30.965Z,95651.00
2018-07-12T22:42:59.991Z,95653.00
2018-07-12T22:45:28.987Z,95649.00
2018-07-12T22:47:58.021Z,95654.00
2018-07-12T22:50:27.021Z,95650.00
2018-07-12T22:52:56.030Z,95653.00
2018-07-12T22:55:25.033Z,95652.00
2018-07-12T22:57:54.038Z,95646.00
2018-07-12T23:00:23.048Z,95642.00
2018-07-12T23:02:52.046Z,95643.00
2018-07-12T23:05:21.033Z,95649.00
2018-07-12T23:07:50.025Z,95642.00
2018-07-12T23:10:19.143Z,95642.00
2018-07-12T23:12:48.134Z,95644.00
2018-07-12T23:15:17.137Z,95647.00
2018-07-12T23:17:46.253Z,95644.00
2018-07-12T23:20:15.254Z,95652.00
2018-07-12T23:22:44.379Z,95643.00
2018-07-12T23:25:14.185Z,95646.00
2018-07-12T23:27:43.198Z,95648.00
2018-07-12T23:30:12.203Z,95647.00
2018-07-12T23:32:41.190Z,95643.00
2018-07-12T23:35:10.179Z,95632.00
2018-07-12T23:37:39.162Z,95647.00
2018-07-12T23:40:08.141Z,95635.00
2018-07-12T23:42:37.155Z,95646.00
2018-07-12T23:45:06.158Z,95654.00
2018-07-12T23:47:35.175Z,95646.00
2018-07-12T23:50:04.152Z,95647.00
2018-07-12T23:52:33.138Z,95647.00
2018-07-12T23:55:02.121Z,95649.00
2018-07-12T23:57:31.126Z,95652.00
